Takigahara, Fuji Air Base (RJAT)

NameFuji Air Base
CityTakigahara
CountryJapan
ICAORJAT
IATA
Altitude692 m
CoordinatesGoogle Map
Live Air TrafficLiveATC.net
METARRJAT 020046Z 20007KT 170V230 0800 SHRA FG FEW000 SCT003 BKN008 13/12 Q1010 RMK 2ST000 3ST003 5ST008 A2983
2019-12-02 00:46:00 Wind: South (200°) 3.6 m/s - Visibility: 800 m - Weather: Showers Rain / Fog - Temperature: 13 °C - Dew point: 12 °C - Humidity: 93.7% - Pressure: 1010 hPa

Sorry, no flights used the airport in this database.